sensor_id;sensor_type;location;lat;lon;timestamp;pressure;altitude;pressure_sealevel;temperature;humidity
21900;BME280;11114;50.658;12.704;2022-08-04T00:01:34;96038.22;;;26.00;36.65
21900;BME280;11114;50.658;12.704;2022-08-04T00:04:34;96038.97;;;25.96;36.92
21900;BME280;11114;50.658;12.704;2022-08-04T00:07:08;96045.09;;;25.91;36.53
21900;BME280;11114;50.658;12.704;2022-08-04T00:10:03;96041.06;;;25.89;36.82
21900;BME280;11114;50.658;12.704;2022-08-04T00:12:35;96037.84;;;25.87;37.09
21900;BME280;11114;50.658;12.704;2022-08-04T00:15:05;96037.34;;;25.90;36.80
21900;BME280;11114;50.658;12.704;2022-08-04T00:17:44;96043.28;;;25.97;36.74
21900;BME280;11114;50.658;12.704;2022-08-04T00:20:17;96045.19;;;26.01;37.03
21900;BME280;11114;50.658;12.704;2022-08-04T00:22:45;96041.44;;;26.02;36.92
21900;BME280;11114;50.658;12.704;2022-08-04T00:25:13;96035.81;;;25.99;36.79
21900;BME280;11114;50.658;12.704;2022-08-04T00:27:40;96035.75;;;25.94;36.72
21900;BME280;11114;50.658;12.704;2022-08-04T00:30:07;96036.50;;;25.89;37.23
21900;BME280;11114;50.658;12.704;2022-08-04T00:32:34;96033.81;;;25.84;36.95
21900;BME280;11114;50.658;12.704;2022-08-04T00:35:01;96031.69;;;25.86;37.00
21900;BME280;11114;50.658;12.704;2022-08-04T00:37:28;96045.00;;;25.81;37.19
21900;BME280;11114;50.658;12.704;2022-08-04T00:39:56;96037.81;;;25.82;36.94
21900;BME280;11114;50.658;12.704;2022-08-04T00:42:30;96027.91;;;25.82;37.50
21900;BME280;11114;50.658;12.704;2022-08-04T00:45:16;96033.53;;;25.81;37.25
21900;BME280;11114;50.658;12.704;2022-08-04T00:48:01;96037.25;;;25.80;37.39
21900;BME280;11114;50.658;12.704;2022-08-04T00:50:43;96032.69;;;25.80;37.21
21900;BME280;11114;50.658;12.704;2022-08-04T00:58:45;96032.59;;;25.71;37.62
21900;BME280;11114;50.658;12.704;2022-08-04T01:01:27;96035.22;;;25.66;37.92
21900;BME280;11114;50.658;12.704;2022-08-04T01:04:15;96034.91;;;25.62;37.87
21900;BME280;11114;50.658;12.704;2022-08-04T01:09:26;96035.41;;;25.59;37.76
21900;BME280;11114;50.658;12.704;2022-08-04T01:20:08;96044.75;;;25.57;38.02
21900;BME280;11114;50.658;12.704;2022-08-04T01:31:51;96035.72;;;25.31;38.84
21900;BME280;11114;50.658;12.704;2022-08-04T01:34:18;96030.59;;;25.30;38.69
21900;BME280;11114;50.658;12.704;2022-08-04T01:36:55;96037.25;;;25.27;38.57
21900;BME280;11114;50.658;12.704;2022-08-04T01:39:28;96034.31;;;25.29;38.63
21900;BME280;11114;50.658;12.704;2022-08-04T01:42:09;96038.03;;;25.28;38.65
21900;BME280;11114;50.658;12.704;2022-08-04T01:44:39;96037.00;;;25.29;38.40
21900;BME280;11114;50.658;12.704;2022-08-04T01:47:07;96036.13;;;25.23;38.54
21900;BME280;11114;50.658;12.704;2022-08-04T01:49:36;96033.97;;;25.20;38.79
21900;BME280;11114;50.658;12.704;2022-08-04T01:52:07;96034.53;;;25.22;38.76
21900;BME280;11114;50.658;12.704;2022-08-04T01:54:37;96035.63;;;25.26;38.71
21900;BME280;11114;50.658;12.704;2022-08-04T01:57:05;96041.28;;;25.30;38.20
21900;BME280;11114;50.658;12.704;2022-08-04T01:59:52;96032.47;;;25.29;38.35
21900;BME280;11114;50.658;12.704;2022-08-04T02:02:22;96034.84;;;25.26;38.54
21900;BME280;11114;50.658;12.704;2022-08-04T02:04:50;96032.09;;;25.21;38.28
21900;BME280;11114;50.658;12.704;2022-08-04T02:10:22;96029.13;;;25.17;38.36
21900;BME280;11114;50.658;12.704;2022-08-04T02:15:41;96033.13;;;25.15;38.45
21900;BME280;11114;50.658;12.704;2022-08-04T02:20:39;96033.41;;;25.18;38.33
21900;BME280;11114;50.658;12.704;2022-08-04T02:23:14;96029.38;;;25.16;38.47
21900;BME280;11114;50.658;12.704;2022-08-04T02:25:57;96023.53;;;25.19;38.46
21900;BME280;11114;50.658;12.704;2022-08-04T02:28:32;96027.28;;;25.18;38.33
21900;BME280;11114;50.658;12.704;2022-08-04T02:31:07;96027.22;;;25.13;38.03
21900;BME280;11114;50.658;12.704;2022-08-04T02:33:41;96018.06;;;25.09;38.18
21900;BME280;11114;50.658;12.704;2022-08-04T02:36:31;96020.03;;;25.13;38.56
21900;BME280;11114;50.658;12.704;2022-08-04T02:39:02;96016.78;;;25.11;38.13
21900;BME280;11114;50.658;12.704;2022-08-04T02:41:30;96026.66;;;25.11;38.20
21900;BME280;11114;50.658;12.704;2022-08-04T02:43:59;96021.88;;;25.13;37.95
21900;BME280;11114;50.658;12.704;2022-08-04T02:46:27;96014.91;;;25.12;37.97
21900;BME280;11114;50.658;12.704;2022-08-04T02:48:55;96015.97;;;25.11;38.25
21900;BME280;11114;50.658;12.704;2022-08-04T02:51:27;96012.38;;;25.05;38.35
21900;BME280;11114;50.658;12.704;2022-08-04T02:53:58;96018.81;;;25.04;38.10
21900;BME280;11114;50.658;12.704;2022-08-04T02:56:28;96014.28;;;25.05;38.46
21900;BME280;11114;50.658;12.704;2022-08-04T02:59:02;96020.66;;;25.04;38.29
21900;BME280;11114;50.658;12.704;2022-08-04T03:01:30;96008.63;;;25.01;38.15
21900;BME280;11114;50.658;12.704;2022-08-04T03:12:32;96023.03;;;25.00;38.42
21900;BME280;11114;50.658;12.704;2022-08-04T03:28:51;96024.84;;;24.95;38.59
21900;BME280;11114;50.658;12.704;2022-08-04T03:48:33;96022.13;;;24.90;38.99
21900;BME280;11114;50.658;12.704;2022-08-04T03:54:38;96028.97;;;24.81;39.11
21900;BME280;11114;50.658;12.704;2022-08-04T04:00:17;96022.47;;;24.77;39.37
21900;BME280;11114;50.658;12.704;2022-08-04T04:20:12;96021.72;;;24.82;39.34
21900;BME280;11114;50.658;12.704;2022-08-04T04:25:48;96026.50;;;24.80;38.70
21900;BME280;11114;50.658;12.704;2022-08-04T04:36:56;96033.84;;;24.89;38.77
21900;BME280;11114;50.658;12.704;2022-08-04T04:42:15;96035.47;;;24.90;38.88
21900;BME280;11114;50.658;12.704;2022-08-04T04:47:48;96031.66;;;24.86;38.46
21900;BME280;11114;50.658;12.704;2022-08-04T04:50:44;96030.88;;;24.86;38.81
21900;BME280;11114;50.658;12.704;2022-08-04T04:53:34;96043.41;;;24.85;39.18
21900;BME280;11114;50.658;12.704;2022-08-04T04:58:46;96039.75;;;24.91;38.93
21900;BME280;11114;50.658;12.704;2022-08-04T05:02:03;96035.78;;;24.93;38.86
21900;BME280;11114;50.658;12.704;2022-08-04T05:13:42;96042.53;;;25.01;38.96
21900;BME280;11114;50.658;12.704;2022-08-04T05:22:12;96041.13;;;25.15;38.87
21900;BME280;11114;50.658;12.704;2022-08-04T05:24:45;96036.09;;;25.18;38.83
21900;BME280;11114;50.658;12.704;2022-08-04T05:27:16;96039.06;;;25.22;38.85
21900;BME280;11114;50.658;12.704;2022-08-04T05:29:52;96037.56;;;25.31;38.60
21900;BME280;11114;50.658;12.704;2022-08-04T05:32:23;96044.56;;;25.37;39.08
21900;BME280;11114;50.658;12.704;2022-08-04T05:34:56;96033.94;;;25.42;38.87
21900;BME280;11114;50.658;12.704;2022-08-04T05:37:25;96040.63;;;25.44;38.79
21900;BME280;11114;50.658;12.704;2022-08-04T05:39:56;96034.50;;;25.44;38.44
21900;BME280;11114;50.658;12.704;2022-08-04T05:42:25;96040.72;;;25.54;38.97
21900;BME280;11114;50.658;12.704;2022-08-04T05:44:54;96041.28;;;25.56;39.02
21900;BME280;11114;50.658;12.704;2022-08-04T05:47:21;96038.38;;;25.63;38.53
21900;BME280;11114;50.658;12.704;2022-08-04T05:49:50;96036.34;;;25.70;38.58
21900;BME280;11114;50.658;12.704;2022-08-04T05:52:29;96031.03;;;25.75;38.72
21900;BME280;11114;50.658;12.704;2022-08-04T05:54:58;96033.25;;;25.82;38.59
21900;BME280;11114;50.658;12.704;2022-08-04T05:57:26;96035.72;;;25.89;38.47
21900;BME280;11114;50.658;12.704;2022-08-04T05:59:54;96038.97;;;25.91;38.31
21900;BME280;11114;50.658;12.704;2022-08-04T06:02:23;96028.00;;;25.92;38.40
21900;BME280;11114;50.658;12.704;2022-08-04T06:04:51;96037.13;;;25.96;38.44
21900;BME280;11114;50.658;12.704;2022-08-04T06:07:19;96033.69;;;26.01;38.35
21900;BME280;11114;50.658;12.704;2022-08-04T06:09:46;96043.63;;;26.05;38.39
21900;BME280;11114;50.658;12.704;2022-08-04T06:12:17;96043.38;;;26.12;38.45
21900;BME280;11114;50.658;12.704;2022-08-04T06:14:49;96040.50;;;26.18;38.15
21900;BME280;11114;50.658;12.704;2022-08-04T06:17:22;96044.56;;;26.26;37.73
21900;BME280;11114;50.658;12.704;2022-08-04T06:20:10;96047.03;;;26.32;37.78
21900;BME280;11114;50.658;12.704;2022-08-04T06:22:56;96049.28;;;26.45;37.84
21900;BME280;11114;50.658;12.704;2022-08-04T06:25:27;96054.97;;;26.59;37.35
21900;BME280;11114;50.658;12.704;2022-08-04T06:27:56;96050.47;;;26.69;37.51
21900;BME280;11114;50.658;12.704;2022-08-04T06:30:25;96050.78;;;26.77;37.64
21900;BME280;11114;50.658;12.704;2022-08-04T06:32:54;96052.97;;;26.85;37.36
21900;BME280;11114;50.658;12.704;2022-08-04T06:35:31;96048.16;;;26.92;37.18
21900;BME280;11114;50.658;12.704;2022-08-04T06:37:59;96053.59;;;27.02;36.93
21900;BME280;11114;50.658;12.704;2022-08-04T06:40:28;96044.78;;;27.07;36.83
21900;BME280;11114;50.658;12.704;2022-08-04T06:43:01;96048.56;;;27.16;36.58
21900;BME280;11114;50.658;12.704;2022-08-04T06:45:30;96053.44;;;27.29;36.75
21900;BME280;11114;50.658;12.704;2022-08-04T06:47:58;96050.00;;;27.48;36.14
21900;BME280;11114;50.658;12.704;2022-08-04T06:50:26;96057.28;;;27.62;35.72
21900;BME280;11114;50.658;12.704;2022-08-04T06:53:14;96053.56;;;27.78;35.68
21900;BME280;11114;50.658;12.704;2022-08-04T06:55:42;96044.97;;;27.91;35.77
21900;BME280;11114;50.658;12.704;2022-08-04T06:58:11;96052.75;;;28.08;35.42
21900;BME280;11114;50.658;12.704;2022-08-04T07:00:40;96050.34;;;28.26;35.22
21900;BME280;11114;50.658;12.704;2022-08-04T07:03:09;96048.19;;;28.48;34.82
21900;BME280;11114;50.658;12.704;2022-08-04T07:05:37;96041.44;;;28.60;34.39
21900;BME280;11114;50.658;12.704;2022-08-04T07:08:05;96044.88;;;28.76;34.58
21900;BME280;11114;50.658;12.704;2022-08-04T07:10:33;96040.81;;;28.98;33.91
21900;BME280;11114;50.658;12.704;2022-08-04T07:13:01;96050.69;;;29.08;33.11
21900;BME280;11114;50.658;12.704;2022-08-04T07:15:28;96053.88;;;29.15;33.49
21900;BME280;11114;50.658;12.704;2022-08-04T07:17:55;96052.22;;;29.23;33.44
21900;BME280;11114;50.658;12.704;2022-08-04T07:20:27;96048.13;;;29.36;33.12
21900;BME280;11114;50.658;12.704;2022-08-04T07:23:04;96048.09;;;29.51;32.92
21900;BME280;11114;50.658;12.704;2022-08-04T07:25:34;96045.31;;;29.66;33.18
21900;BME280;11114;50.658;12.704;2022-08-04T07:28:26;96045.97;;;29.86;32.72
21900;BME280;11114;50.658;12.704;2022-08-04T07:30:56;96051.84;;;29.93;32.97
21900;BME280;11114;50.658;12.704;2022-08-04T07:33:23;96045.84;;;30.06;32.35
21900;BME280;11114;50.658;12.704;2022-08-04T07:35:53;96043.59;;;30.18;32.60
21900;BME280;11114;50.658;12.704;2022-08-04T07:38:37;96040.47;;;30.34;31.96
21900;BME280;11114;50.658;12.704;2022-08-04T07:41:18;96043.88;;;30.45;32.11
21900;BME280;11114;50.658;12.704;2022-08-04T07:44:02;96039.56;;;30.72;32.02
21900;BME280;11114;50.658;12.704;2022-08-04T07:46:29;96040.66;;;30.94;32.01
21900;BME280;11114;50.658;12.704;2022-08-04T07:48:59;96039.41;;;31.10;31.50
21900;BME280;11114;50.658;12.704;2022-08-04T07:51:27;96042.78;;;31.21;31.10
21900;BME280;11114;50.658;12.704;2022-08-04T07:53:55;96043.63;;;31.40;30.79
21900;BME280;11114;50.658;12.704;2022-08-04T07:56:24;96034.28;;;31.51;31.09
21900;BME280;11114;50.658;12.704;2022-08-04T07:58:51;96029.38;;;31.76;31.19
21900;BME280;11114;50.658;12.704;2022-08-04T08:01:18;96031.06;;;32.04;29.95
21900;BME280;11114;50.658;12.704;2022-08-04T08:03:46;96026.03;;;32.16;29.81
21900;BME280;11114;50.658;12.704;2022-08-04T08:06:13;96031.09;;;32.36;30.21
21900;BME280;11114;50.658;12.704;2022-08-04T08:08:59;96029.06;;;32.60;29.57
21900;BME280;11114;50.658;12.704;2022-08-04T08:11:38;96024.06;;;32.67;29.53
21900;BME280;11114;50.658;12.704;2022-08-04T08:14:25;96027.69;;;32.89;29.35
21900;BME280;11114;50.658;12.704;2022-08-04T08:16:54;96019.06;;;33.00;28.39
21900;BME280;11114;50.658;12.704;2022-08-04T08:19:20;96027.16;;;33.00;28.24
21900;BME280;11114;50.658;12.704;2022-08-04T08:21:47;96027.69;;;33.16;28.31
21900;BME280;11114;50.658;12.704;2022-08-04T08:24:30;96017.88;;;33.06;27.74
21900;BME280;11114;50.658;12.704;2022-08-04T08:26:58;96024.06;;;32.93;28.42
21900;BME280;11114;50.658;12.704;2022-08-04T08:29:26;96022.97;;;33.08;28.44
21900;BME280;11114;50.658;12.704;2022-08-04T08:31:55;96021.88;;;33.36;28.64
21900;BME280;11114;50.658;12.704;2022-08-04T08:34:31;96025.94;;;33.73;27.87
21900;BME280;11114;50.658;12.704;2022-08-04T08:37:03;96013.63;;;34.11;28.12
21900;BME280;11114;50.658;12.704;2022-08-04T08:39:48;96028.63;;;34.31;26.89
21900;BME280;11114;50.658;12.704;2022-08-04T08:42:38;96021.34;;;34.40;27.43
21900;BME280;11114;50.658;12.704;2022-08-04T08:51:22;96024.94;;;35.26;26.44
21900;BME280;11114;50.658;12.704;2022-08-04T08:54:14;96021.41;;;35.26;24.24
21900;BME280;11114;50.658;12.704;2022-08-04T09:05:50;96027.88;;;35.55;25.38
21900;BME280;11114;50.658;12.704;2022-08-04T09:11:14;96025.03;;;35.94;24.88
21900;BME280;11114;50.658;12.704;2022-08-04T09:13:47;96022.97;;;36.08;24.91
21900;BME280;11114;50.658;12.704;2022-08-04T09:16:44;96025.03;;;36.27;24.24
21900;BME280;11114;50.658;12.704;2022-08-04T09:19:23;96020.06;;;36.55;24.65
21900;BME280;11114;50.658;12.704;2022-08-04T09:22:13;96020.91;;;36.84;24.48
21900;BME280;11114;50.658;12.704;2022-08-04T09:24:47;96014.63;;;37.01;23.76
21900;BME280;11114;50.658;12.704;2022-08-04T09:27:25;96016.53;;;37.00;23.28
21900;BME280;11114;50.658;12.704;2022-08-04T09:30:08;96020.56;;;36.86;23.64
21900;BME280;11114;50.658;12.704;2022-08-04T09:37:47;96012.94;;;36.88;23.14
21900;BME280;11114;50.658;12.704;2022-08-04T09:40:32;96009.75;;;37.14;23.12
21900;BME280;11114;50.658;12.704;2022-08-04T09:43:31;96005.72;;;37.20;23.36
21900;BME280;11114;50.658;12.704;2022-08-04T09:48:58;96013.81;;;37.37;23.35
21900;BME280;11114;50.658;12.704;2022-08-04T09:57:50;96003.47;;;36.77;23.17
21900;BME280;11114;50.658;12.704;2022-08-04T10:00:19;96007.53;;;36.62;23.96
21900;BME280;11114;50.658;12.704;2022-08-04T10:03:09;96009.53;;;36.45;23.81
21900;BME280;11114;50.658;12.704;2022-08-04T10:09:12;95999.72;;;36.52;23.35
21900;BME280;11114;50.658;12.704;2022-08-04T10:12:04;96000.34;;;36.58;24.30
21900;BME280;11114;50.658;12.704;2022-08-04T10:14:40;95995.47;;;36.80;24.47
21900;BME280;11114;50.658;12.704;2022-08-04T10:17:22;96002.47;;;36.98;24.20
21900;BME280;11114;50.658;12.704;2022-08-04T10:23:19;95997.03;;;37.56;22.28
21900;BME280;11114;50.658;12.704;2022-08-04T10:26:14;95995.69;;;37.62;22.80
21900;BME280;11114;50.658;12.704;2022-08-04T10:28:53;95989.63;;;37.85;22.29
21900;BME280;11114;50.658;12.704;2022-08-04T10:31:34;95981.09;;;37.87;22.67
21900;BME280;11114;50.658;12.704;2022-08-04T10:34:10;95983.59;;;38.12;22.01
21900;BME280;11114;50.658;12.704;2022-08-04T10:39:39;95995.41;;;38.16;20.51
21900;BME280;11114;50.658;12.704;2022-08-04T10:42:29;95993.69;;;37.71;22.04
21900;BME280;11114;50.658;12.704;2022-08-04T10:45:14;95984.59;;;37.46;21.50
21900;BME280;11114;50.658;12.704;2022-08-04T10:48:05;95985.78;;;37.37;20.83
21900;BME280;11114;50.658;12.704;2022-08-04T10:50:39;95980.94;;;37.42;22.45
21900;BME280;11114;50.658;12.704;2022-08-04T10:53:19;95976.22;;;37.72;22.23
21900;BME280;11114;50.658;12.704;2022-08-04T10:55:52;95980.03;;;37.99;21.38
21900;BME280;11114;50.658;12.704;2022-08-04T10:58:39;95975.22;;;37.76;21.54
21900;BME280;11114;50.658;12.704;2022-08-04T11:01:36;95971.22;;;37.33;21.57
21900;BME280;11114;50.658;12.704;2022-08-04T11:06:57;95966.44;;;36.47;22.51
21900;BME280;11114;50.658;12.704;2022-08-04T11:09:27;95973.59;;;36.06;22.71
21900;BME280;11114;50.658;12.704;2022-08-04T11:11:57;95966.53;;;35.79;22.66
21900;BME280;11114;50.658;12.704;2022-08-04T11:14:39;95974.53;;;35.76;23.25
21900;BME280;11114;50.658;12.704;2022-08-04T11:17:12;95961.56;;;36.15;24.01
21900;BME280;11114;50.658;12.704;2022-08-04T11:20:01;95951.25;;;36.54;23.80
21900;BME280;11114;50.658;12.704;2022-08-04T11:22:59;95953.81;;;36.97;23.77
21900;BME280;11114;50.658;12.704;2022-08-04T11:25:42;95954.97;;;37.45;23.22
21900;BME280;11114;50.658;12.704;2022-08-04T11:28:32;95960.06;;;37.87;22.19
21900;BME280;11114;50.658;12.704;2022-08-04T11:31:07;95965.94;;;38.09;21.55
21900;BME280;11114;50.658;12.704;2022-08-04T11:36:38;95965.84;;;38.38;20.42
21900;BME280;11114;50.658;12.704;2022-08-04T11:39:12;95960.34;;;38.26;21.37
21900;BME280;11114;50.658;12.704;2022-08-04T11:41:47;95966.97;;;38.37;21.11
21900;BME280;11114;50.658;12.704;2022-08-04T11:44:29;95964.94;;;38.34;20.21
21900;BME280;11114;50.658;12.704;2022-08-04T11:47:05;95962.97;;;38.23;21.40
21900;BME280;11114;50.658;12.704;2022-08-04T11:49:40;95967.78;;;38.38;21.66
21900;BME280;11114;50.658;12.704;2022-08-04T11:52:23;95956.91;;;38.17;21.41
21900;BME280;11114;50.658;12.704;2022-08-04T11:54:53;95957.88;;;38.33;21.59
21900;BME280;11114;50.658;12.704;2022-08-04T11:57:22;95960.63;;;38.33;20.61
21900;BME280;11114;50.658;12.704;2022-08-04T12:00:04;95961.31;;;38.42;20.40
21900;BME280;11114;50.658;12.704;2022-08-04T12:03:18;95956.53;;;38.39;20.43
21900;BME280;11114;50.658;12.704;2022-08-04T12:10:57;95953.06;;;38.75;20.53
21900;BME280;11114;50.658;12.704;2022-08-04T12:16:09;95957.53;;;39.15;20.47
21900;BME280;11114;50.658;12.704;2022-08-04T12:18:55;95958.00;;;39.17;18.92
21900;BME280;11114;50.658;12.704;2022-08-04T12:21:43;95954.81;;;39.27;20.09
21900;BME280;11114;50.658;12.704;2022-08-04T12:24:27;95949.44;;;39.30;19.43
21900;BME280;11114;50.658;12.704;2022-08-04T12:26:59;95942.38;;;39.29;18.67
21900;BME280;11114;50.658;12.704;2022-08-04T12:29:30;95941.47;;;39.01;19.27
21900;BME280;11114;50.658;12.704;2022-08-04T12:32:08;95932.59;;;38.69;19.26
21900;BME280;11114;50.658;12.704;2022-08-04T12:34:39;95937.41;;;38.72;19.67
21900;BME280;11114;50.658;12.704;2022-08-04T12:37:22;95936.69;;;38.75;19.48
21900;BME280;11114;50.658;12.704;2022-08-04T12:39:52;95941.94;;;38.68;20.39
21900;BME280;11114;50.658;12.704;2022-08-04T12:42:44;95929.53;;;38.70;20.31
21900;BME280;11114;50.658;12.704;2022-08-04T12:45:25;95924.66;;;38.64;19.93
21900;BME280;11114;50.658;12.704;2022-08-04T12:47:56;95926.97;;;38.41;20.27
21900;BME280;11114;50.658;12.704;2022-08-04T12:50:24;95926.75;;;38.34;20.47
21900;BME280;11114;50.658;12.704;2022-08-04T12:52:55;95924.56;;;37.95;20.40
21900;BME280;11114;50.658;12.704;2022-08-04T12:55:29;95931.25;;;37.86;20.50
21900;BME280;11114;50.658;12.704;2022-08-04T12:57:58;95923.50;;;37.68;20.73
21900;BME280;11114;50.658;12.704;2022-08-04T13:00:36;95918.28;;;37.63;21.42
21900;BME280;11114;50.658;12.704;2022-08-04T13:03:10;95917.94;;;37.44;20.82
21900;BME280;11114;50.658;12.704;2022-08-04T13:05:41;95926.97;;;37.36;21.00
21900;BME280;11114;50.658;12.704;2022-08-04T13:08:12;95919.09;;;37.14;21.11
21900;BME280;11114;50.658;12.704;2022-08-04T13:10:41;95916.69;;;36.92;21.26
21900;BME280;11114;50.658;12.704;2022-08-04T13:13:16;95908.66;;;36.87;21.28
21900;BME280;11114;50.658;12.704;2022-08-04T13:15:56;95908.59;;;36.75;22.32
21900;BME280;11114;50.658;12.704;2022-08-04T13:18:25;95907.47;;;36.76;22.51
21900;BME280;11114;50.658;12.704;2022-08-04T13:21:13;95904.44;;;36.69;21.50
21900;BME280;11114;50.658;12.704;2022-08-04T13:23:50;95902.25;;;36.63;22.22
21900;BME280;11114;50.658;12.704;2022-08-04T13:26:46;95911.66;;;36.65;21.96
21900;BME280;11114;50.658;12.704;2022-08-04T13:29:23;95900.78;;;36.65;22.18
21900;BME280;11114;50.658;12.704;2022-08-04T13:32:15;95902.66;;;36.73;22.58
21900;BME280;11114;50.658;12.704;2022-08-04T13:34:45;95903.41;;;36.82;22.19
21900;BME280;11114;50.658;12.704;2022-08-04T13:37:21;95899.44;;;36.80;21.82
21900;BME280;11114;50.658;12.704;2022-08-04T13:39:52;95905.00;;;36.83;22.36
21900;BME280;11114;50.658;12.704;2022-08-04T13:42:23;95899.88;;;36.82;21.54
21900;BME280;11114;50.658;12.704;2022-08-04T13:44:57;95892.91;;;36.72;22.04
21900;BME280;11114;50.658;12.704;2022-08-04T13:47:30;95896.94;;;36.66;21.77
21900;BME280;11114;50.658;12.704;2022-08-04T13:50:19;95895.22;;;36.62;22.08
21900;BME280;11114;50.658;12.704;2022-08-04T13:52:51;95891.06;;;36.56;22.14
21900;BME280;11114;50.658;12.704;2022-08-04T13:55:34;95885.63;;;36.56;21.41
21900;BME280;11114;50.658;12.704;2022-08-04T13:58:10;95882.59;;;36.57;22.16
21900;BME280;11114;50.658;12.704;2022-08-04T14:00:58;95881.91;;;36.60;21.75
21900;BME280;11114;50.658;12.704;2022-08-04T14:03:33;95888.56;;;36.42;22.07
21900;BME280;11114;50.658;12.704;2022-08-04T14:06:22;95880.44;;;36.25;21.95
21900;BME280;11114;50.658;12.704;2022-08-04T14:09:13;95876.44;;;36.31;22.61
21900;BME280;11114;50.658;12.704;2022-08-04T14:11:43;95875.78;;;36.43;22.34
21900;BME280;11114;50.658;12.704;2022-08-04T14:14:33;95881.19;;;36.34;22.29
21900;BME280;11114;50.658;12.704;2022-08-04T14:17:08;95877.44;;;36.18;21.54
21900;BME280;11114;50.658;12.704;2022-08-04T14:22:29;95865.16;;;36.13;22.95
21900;BME280;11114;50.658;12.704;2022-08-04T14:25:10;95864.47;;;36.15;22.51
21900;BME280;11114;50.658;12.704;2022-08-04T14:27:49;95865.94;;;36.13;22.49
21900;BME280;11114;50.658;12.704;2022-08-04T14:35:24;95854.00;;;36.06;22.14
21900;BME280;11114;50.658;12.704;2022-08-04T14:40:33;95854.81;;;35.98;22.49
21900;BME280;11114;50.658;12.704;2022-08-04T14:43:01;95856.53;;;35.94;22.80
21900;BME280;11114;50.658;12.704;2022-08-04T14:45:39;95852.72;;;35.95;21.84
21900;BME280;11114;50.658;12.704;2022-08-04T14:48:21;95853.81;;;35.94;23.42
21900;BME280;11114;50.658;12.704;2022-08-04T14:50:49;95852.69;;;36.03;23.09
21900;BME280;11114;50.658;12.704;2022-08-04T14:55:52;95852.06;;;36.06;22.22
21900;BME280;11114;50.658;12.704;2022-08-04T14:58:24;95845.50;;;35.99;22.37
21900;BME280;11114;50.658;12.704;2022-08-04T15:01:04;95848.88;;;35.96;23.04
21900;BME280;11114;50.658;12.704;2022-08-04T15:03:45;95859.09;;;35.99;22.93
21900;BME280;11114;50.658;12.704;2022-08-04T15:06:29;95851.13;;;36.02;23.00
21900;BME280;11114;50.658;12.704;2022-08-04T15:08:58;95843.13;;;36.06;22.76
21900;BME280;11114;50.658;12.704;2022-08-04T15:11:26;95850.44;;;36.05;22.14
21900;BME280;11114;50.658;12.704;2022-08-04T15:13:55;95831.47;;;35.97;22.79
21900;BME280;11114;50.658;12.704;2022-08-04T15:16:23;95836.91;;;35.97;23.36
21900;BME280;11114;50.658;12.704;2022-08-04T15:18:51;95831.28;;;36.02;23.42
21900;BME280;11114;50.658;12.704;2022-08-04T15:21:23;95833.06;;;35.98;23.24
21900;BME280;11114;50.658;12.704;2022-08-04T15:23:51;95838.78;;;35.96;23.23
21900;BME280;11114;50.658;12.704;2022-08-04T15:26:26;95830.97;;;35.95;23.47
21900;BME280;11114;50.658;12.704;2022-08-04T15:28:57;95817.28;;;35.74;22.91
21900;BME280;11114;50.658;12.704;2022-08-04T15:31:27;95827.19;;;35.70;22.96
21900;BME280;11114;50.658;12.704;2022-08-04T15:34:15;95830.88;;;35.66;22.84
21900;BME280;11114;50.658;12.704;2022-08-04T15:36:55;95826.41;;;35.61;22.81
21900;BME280;11114;50.658;12.704;2022-08-04T15:39:33;95831.69;;;35.58;23.11
21900;BME280;11114;50.658;12.704;2022-08-04T15:42:14;95825.47;;;35.57;23.03
21900;BME280;11114;50.658;12.704;2022-08-04T15:45:18;95818.13;;;35.58;23.03
21900;BME280;11114;50.658;12.704;2022-08-04T15:50:28;95820.19;;;35.61;23.21
21900;BME280;11114;50.658;12.704;2022-08-04T15:55:38;95808.06;;;35.58;23.89
21900;BME280;11114;50.658;12.704;2022-08-04T15:58:13;95818.59;;;35.51;23.29
21900;BME280;11114;50.658;12.704;2022-08-04T16:03:49;95815.56;;;35.36;22.89
21900;BME280;11114;50.658;12.704;2022-08-04T16:09:03;95817.16;;;35.37;22.98
21900;BME280;11114;50.658;12.704;2022-08-04T16:14:09;95821.78;;;35.28;23.06
21900;BME280;11114;50.658;12.704;2022-08-04T16:19:07;95805.50;;;35.11;22.66
21900;BME280;11114;50.658;12.704;2022-08-04T16:21:49;95809.03;;;35.03;23.36
21900;BME280;11114;50.658;12.704;2022-08-04T16:24:27;95811.25;;;35.01;23.55
21900;BME280;11114;50.658;12.704;2022-08-04T16:26:56;95803.88;;;34.93;23.44
21900;BME280;11114;50.658;12.704;2022-08-04T16:29:40;95816.81;;;34.79;23.73
21900;BME280;11114;50.658;12.704;2022-08-04T16:32:19;95811.38;;;34.71;23.66
21900;BME280;11114;50.658;12.704;2022-08-04T16:35:02;95811.56;;;34.74;23.56
21900;BME280;11114;50.658;12.704;2022-08-04T16:37:34;95809.78;;;34.78;23.64
21900;BME280;11114;50.658;12.704;2022-08-04T16:42:49;95803.88;;;34.76;23.57
21900;BME280;11114;50.658;12.704;2022-08-04T16:45:18;95803.41;;;34.74;23.98
21900;BME280;11114;50.658;12.704;2022-08-04T16:50:15;95801.81;;;34.56;23.88
21900;BME280;11114;50.658;12.704;2022-08-04T16:52:44;95802.91;;;34.55;24.05
21900;BME280;11114;50.658;12.704;2022-08-04T16:55:16;95802.38;;;34.53;24.09
21900;BME280;11114;50.658;12.704;2022-08-04T16:57:56;95806.06;;;34.49;24.17
21900;BME280;11114;50.658;12.704;2022-08-04T17:00:34;95799.03;;;34.40;24.17
21900;BME280;11114;50.658;12.704;2022-08-04T17:03:08;95797.38;;;34.30;23.50
21900;BME280;11114;50.658;12.704;2022-08-04T17:05:36;95794.66;;;34.22;23.94
21900;BME280;11114;50.658;12.704;2022-08-04T17:08:07;95790.97;;;34.18;24.38
21900;BME280;11114;50.658;12.704;2022-08-04T17:10:54;95794.47;;;34.10;24.13
21900;BME280;11114;50.658;12.704;2022-08-04T17:13:29;95791.50;;;33.98;23.79
21900;BME280;11114;50.658;12.704;2022-08-04T17:16:17;95782.53;;;33.89;24.42